createdAt,value
2017-05-23T00:01:42.216Z,15.50
2017-05-23T00:04:10.625Z,15.50
2017-05-23T00:06:38.920Z,15.50
2017-05-23T00:09:07.297Z,15.50
2017-05-23T00:11:35.605Z,15.50
2017-05-23T00:14:03.962Z,15.40
2017-05-23T00:16:32.302Z,15.40
2017-05-23T00:19:00.617Z,15.40
2017-05-23T00:21:28.993Z,15.40
2017-05-23T00:23:57.311Z,15.30
2017-05-23T00:26:25.612Z,15.30
2017-05-23T00:28:53.931Z,15.30
2017-05-23T00:31:22.312Z,15.20
2017-05-23T00:33:50.679Z,15.10
2017-05-23T00:36:19.061Z,15.10
2017-05-23T00:38:47.353Z,15.10
2017-05-23T00:41:15.698Z,15.10
2017-05-23T00:43:44.102Z,15.10
2017-05-23T00:46:12.480Z,15.00
2017-05-23T00:48:40.784Z,15.00
2017-05-23T00:51:09.076Z,15.00
2017-05-23T00:53:37.514Z,15.00
2017-05-23T00:56:05.809Z,15.00
2017-05-23T00:58:34.218Z,14.90
2017-05-23T01:01:02.520Z,14.80
2017-05-23T01:03:30.806Z,14.90
2017-05-23T01:05:59.113Z,14.80
2017-05-23T01:08:27.396Z,14.80
2017-05-23T01:10:55.763Z,14.80
2017-05-23T01:13:24.137Z,14.80
2017-05-23T01:15:52.428Z,14.80
2017-05-23T01:18:20.823Z,14.80
2017-05-23T01:20:49.180Z,14.80
2017-05-23T01:23:17.465Z,14.80
2017-05-23T01:25:45.840Z,14.80
2017-05-23T01:28:14.135Z,14.70
2017-05-23T01:30:42.485Z,14.70
2017-05-23T01:33:10.784Z,14.80
2017-05-23T01:35:39.148Z,14.80
2017-05-23T01:38:07.535Z,14.80
2017-05-23T01:40:35.822Z,14.70
2017-05-23T01:43:04.140Z,14.70
2017-05-23T01:45:32.447Z,14.60
2017-05-23T01:48:00.735Z,14.60
2017-05-23T01:50:29.059Z,14.60
2017-05-23T01:52:57.384Z,14.50
2017-05-23T01:55:25.776Z,14.50
2017-05-23T01:57:54.065Z,14.50
2017-05-23T02:00:22.396Z,14.40
2017-05-23T02:02:50.716Z,14.40
2017-05-23T02:05:19.104Z,14.30
2017-05-23T02:07:47.465Z,14.30
2017-05-23T02:10:15.849Z,14.30
2017-05-23T02:12:44.226Z,14.30
2017-05-23T02:15:12.525Z,14.30
2017-05-23T02:17:40.882Z,14.20
2017-05-23T02:20:09.259Z,14.30
2017-05-23T02:22:37.639Z,14.20
2017-05-23T02:25:05.981Z,14.20
2017-05-23T02:27:34.277Z,14.20
2017-05-23T02:30:02.571Z,14.20
2017-05-23T02:32:30.934Z,14.20
2017-05-23T02:34:59.328Z,14.10
2017-05-23T02:37:27.708Z,14.10
2017-05-23T02:39:56.084Z,14.10
2017-05-23T02:42:24.480Z,14.20
2017-05-23T02:44:52.800Z,14.10
2017-05-23T02:47:21.093Z,14.20
2017-05-23T02:49:49.515Z,14.10
2017-05-23T02:52:17.875Z,14.10
2017-05-23T02:54:46.254Z,14.10
2017-05-23T02:57:14.562Z,14.10
2017-05-23T02:59:42.853Z,14.10
2017-05-23T03:02:11.196Z,14.20
2017-05-23T03:04:39.583Z,14.20
2017-05-23T03:07:07.949Z,14.20
2017-05-23T03:09:36.321Z,14.20
2017-05-23T03:12:04.642Z,14.20
2017-05-23T03:14:33.096Z,14.20
2017-05-23T03:17:01.394Z,14.20
2017-05-23T03:19:29.739Z,14.20
2017-05-23T03:21:58.040Z,14.20
2017-05-23T03:24:26.399Z,14.20
2017-05-23T03:26:54.787Z,14.20
2017-05-23T03:29:23.170Z,14.20
2017-05-23T03:31:51.468Z,14.20
2017-05-23T03:34:19.931Z,14.30
2017-05-23T03:36:48.302Z,14.40
2017-05-23T03:39:16.667Z,14.40
2017-05-23T03:41:44.970Z,14.40
2017-05-23T03:44:13.331Z,14.50
2017-05-23T03:46:41.724Z,14.60
2017-05-23T03:49:10.093Z,14.60
2017-05-23T03:51:38.472Z,14.70
2017-05-23T03:54:06.839Z,14.80
2017-05-23T03:56:35.146Z,14.80
2017-05-23T03:59:03.498Z,14.90
2017-05-23T04:01:31.880Z,14.90
2017-05-23T04:04:00.192Z,15.00
2017-05-23T04:06:28.557Z,15.00
2017-05-23T04:08:56.915Z,15.00
2017-05-23T04:11:25.288Z,15.10
2017-05-23T04:13:53.568Z,15.10
2017-05-23T04:16:21.966Z,15.20
2017-05-23T04:18:50.287Z,15.20
2017-05-23T04:21:19.044Z,15.20
2017-05-23T04:23:47.411Z,15.30
2017-05-23T04:26:15.706Z,15.30
2017-05-23T04:28:44.051Z,15.30
2017-05-23T04:31:12.344Z,15.30
2017-05-23T04:33:40.733Z,15.40
2017-05-23T04:36:09.065Z,15.40
2017-05-23T04:38:37.370Z,15.40
2017-05-23T04:41:05.726Z,15.40
2017-05-23T04:43:34.111Z,15.50
2017-05-23T04:46:02.437Z,15.50
2017-05-23T04:48:30.761Z,15.50
2017-05-23T04:50:59.058Z,15.60
2017-05-23T04:53:27.470Z,15.60
2017-05-23T04:55:55.762Z,15.70
2017-05-23T04:58:24.137Z,15.70
2017-05-23T05:00:52.520Z,15.90
2017-05-23T05:03:20.819Z,15.90
2017-05-23T05:05:49.125Z,15.90
2017-05-23T05:08:17.543Z,16.10
2017-05-23T05:10:45.872Z,16.10
2017-05-23T05:13:14.169Z,16.10
2017-05-23T05:15:42.454Z,16.00
2017-05-23T05:18:10.776Z,16.10
2017-05-23T05:20:39.155Z,16.10
2017-05-23T05:23:07.531Z,16.10
2017-05-23T05:25:35.843Z,16.20
2017-05-23T05:28:04.269Z,16.30
2017-05-23T05:30:32.587Z,16.30
2017-05-23T05:33:00.906Z,16.30
2017-05-23T05:35:29.308Z,16.30
2017-05-23T05:37:57.597Z,16.40
2017-05-23T05:40:25.938Z,16.50
2017-05-23T05:42:54.252Z,16.50
2017-05-23T05:45:22.537Z,16.50
2017-05-23T05:47:50.847Z,16.50
2017-05-23T05:50:19.188Z,16.40
2017-05-23T05:52:47.553Z,16.30
2017-05-23T05:55:16.031Z,16.30
2017-05-23T05:57:44.427Z,16.30
2017-05-23T06:00:12.793Z,16.30
2017-05-23T06:02:41.169Z,16.30
2017-05-23T06:05:09.554Z,16.30
2017-05-23T06:07:37.850Z,16.40
2017-05-23T06:10:06.212Z,16.50
2017-05-23T06:12:34.527Z,16.60
2017-05-23T06:15:02.824Z,16.60
2017-05-23T06:17:31.242Z,16.60
2017-05-23T06:19:59.537Z,16.70
2017-05-23T06:22:27.850Z,16.80
2017-05-23T06:24:56.193Z,16.90
2017-05-23T06:27:24.573Z,17.00
2017-05-23T06:29:52.937Z,17.10
2017-05-23T06:32:21.336Z,17.20
2017-05-23T06:34:49.896Z,17.30
2017-05-23T06:37:18.291Z,17.50
2017-05-23T06:39:46.678Z,17.60
2017-05-23T06:42:15.041Z,17.70
2017-05-23T06:44:43.419Z,17.90
2017-05-23T06:47:11.799Z,18.10
2017-05-23T06:49:40.177Z,18.20
2017-05-23T06:52:08.507Z,18.30
2017-05-23T06:54:38.678Z,18.50
2017-05-23T06:57:07.058Z,18.50
2017-05-23T06:59:35.341Z,18.60
2017-05-23T07:02:03.676Z,18.70
2017-05-23T07:04:31.962Z,18.80
2017-05-23T07:06:59.496Z,18.80
2017-05-23T07:09:27.819Z,19.10
2017-05-23T07:11:56.122Z,19.20
2017-05-23T07:14:24.486Z,19.30
2017-05-23T07:16:52.853Z,19.50
2017-05-23T07:19:21.193Z,19.60
2017-05-23T07:21:49.520Z,19.70
2017-05-23T07:24:17.893Z,19.90
2017-05-23T07:26:46.258Z,20.00
2017-05-23T07:29:14.545Z,20.20
2017-05-23T07:31:42.925Z,20.40
2017-05-23T07:34:11.301Z,20.40
2017-05-23T07:36:39.692Z,20.50
2017-05-23T07:39:08.163Z,20.50
2017-05-23T07:41:36.565Z,20.60
2017-05-23T07:44:04.931Z,20.70
2017-05-23T07:46:33.241Z,20.80
2017-05-23T07:49:01.598Z,20.80
2017-05-23T07:51:29.909Z,20.80
2017-05-23T07:53:58.218Z,20.90
2017-05-23T07:56:26.616Z,21.10
2017-05-23T07:58:54.904Z,21.30
2017-05-23T08:01:23.214Z,21.40
2017-05-23T08:03:51.534Z,21.50
2017-05-23T08:06:19.817Z,21.60
2017-05-23T08:08:48.129Z,21.70
2017-05-23T08:11:16.477Z,22.00
2017-05-23T08:13:44.869Z,22.00
2017-05-23T08:16:13.204Z,22.00
2017-05-23T08:18:41.491Z,22.00
2017-05-23T08:21:09.826Z,22.00
2017-05-23T08:23:38.175Z,22.20
2017-05-23T08:26:06.469Z,22.30
2017-05-23T08:28:34.772Z,22.30
2017-05-23T08:31:03.117Z,22.50
2017-05-23T08:33:31.492Z,22.50
2017-05-23T08:35:59.784Z,22.60
2017-05-23T08:38:28.066Z,22.70
2017-05-23T08:40:56.365Z,22.90
2017-05-23T08:43:24.710Z,22.80
2017-05-23T08:45:53.053Z,22.90
2017-05-23T08:48:21.349Z,22.80
2017-05-23T08:50:49.644Z,22.90
2017-05-23T08:53:18.022Z,23.00
2017-05-23T08:55:46.419Z,22.80
2017-05-23T08:58:14.770Z,22.80
2017-05-23T09:00:43.151Z,22.80
2017-05-23T09:03:11.529Z,22.90
2017-05-23T09:05:39.901Z,23.10
2017-05-23T09:08:08.288Z,23.00
2017-05-23T09:10:36.618Z,23.10
2017-05-23T09:13:04.940Z,23.00
2017-05-23T09:15:33.317Z,22.90
2017-05-23T09:18:01.620Z,22.90
2017-05-23T09:20:29.977Z,22.90
2017-05-23T09:22:58.287Z,23.00
2017-05-23T09:25:32.339Z,23.10
2017-05-23T09:28:00.657Z,23.20
2017-05-23T09:30:28.973Z,23.50
2017-05-23T09:32:57.313Z,23.50
2017-05-23T09:35:25.682Z,23.70
2017-05-23T09:37:53.973Z,23.60
2017-05-23T09:40:22.348Z,23.60
2017-05-23T09:42:50.730Z,23.70
2017-05-23T09:45:19.090Z,23.70
2017-05-23T09:47:47.469Z,23.80
2017-05-23T09:50:15.848Z,23.90
2017-05-23T09:52:44.184Z,23.90
2017-05-23T09:55:12.473Z,24.00
2017-05-23T09:57:40.880Z,24.10
2017-05-23T10:00:09.189Z,24.40
2017-05-23T10:02:37.537Z,24.40
2017-05-23T10:05:05.915Z,24.30
2017-05-23T10:07:34.325Z,24.50
2017-05-23T10:10:02.740Z,24.80
2017-05-23T10:12:31.134Z,24.90
2017-05-23T10:14:59.441Z,24.60
2017-05-23T10:17:27.792Z,24.80
2017-05-23T10:19:56.098Z,24.90
2017-05-23T10:22:24.533Z,24.80
2017-05-23T10:24:52.821Z,24.90
2017-05-23T10:27:21.194Z,24.90
2017-05-23T10:29:49.497Z,24.80
2017-05-23T10:32:17.884Z,24.60
2017-05-23T10:34:46.225Z,24.40
2017-05-23T10:37:14.610Z,24.40
2017-05-23T10:39:42.909Z,24.30
2017-05-23T10:42:11.265Z,24.10
2017-05-23T10:44:39.644Z,24.10
2017-05-23T10:47:07.969Z,24.20
2017-05-23T10:49:36.259Z,24.20
2017-05-23T10:52:04.548Z,24.30
2017-05-23T10:54:32.988Z,24.40
2017-05-23T10:57:01.334Z,24.60
2017-05-23T10:59:29.813Z,24.50
2017-05-23T11:01:58.202Z,24.40
2017-05-23T11:04:26.503Z,24.30
2017-05-23T11:06:54.807Z,24.30
2017-05-23T11:09:23.097Z,24.10
2017-05-23T11:11:51.504Z,24.20
2017-05-23T11:14:19.981Z,24.40
2017-05-23T11:16:48.570Z,24.60
2017-05-23T11:19:16.945Z,24.70
2017-05-23T11:21:45.340Z,24.80
2017-05-23T11:24:13.705Z,24.70
2017-05-23T11:26:42.084Z,24.80
2017-05-23T11:29:10.373Z,25.00
2017-05-23T11:31:38.694Z,25.10
2017-05-23T11:34:06.988Z,25.40
2017-05-23T11:36:35.293Z,25.40
2017-05-23T11:39:03.589Z,25.40
2017-05-23T11:41:31.956Z,25.40
2017-05-23T11:44:00.328Z,25.70
2017-05-23T11:46:28.712Z,25.70
2017-05-23T11:48:56.996Z,26.00
2017-05-23T11:51:25.319Z,25.90
2017-05-23T11:53:53.596Z,25.90
2017-05-23T11:56:21.916Z,26.10
2017-05-23T11:58:50.315Z,26.30
2017-05-23T12:01:18.664Z,26.20
2017-05-23T12:03:46.949Z,26.30
2017-05-23T12:06:15.442Z,26.90
2017-05-23T12:08:43.816Z,28.60
2017-05-23T12:11:12.201Z,30.60
2017-05-23T12:13:40.529Z,31.60
2017-05-23T12:16:08.828Z,32.60
2017-05-23T12:18:37.118Z,32.00
2017-05-23T12:21:05.439Z,32.00
2017-05-23T12:23:33.779Z,33.30
2017-05-23T12:26:02.095Z,34.70
2017-05-23T12:28:30.376Z,34.80
2017-05-23T12:30:58.816Z,35.40
2017-05-23T12:33:27.108Z,35.20
2017-05-23T12:35:55.468Z,35.90
2017-05-23T12:38:23.774Z,36.60
2017-05-23T12:40:52.064Z,36.60
2017-05-23T12:43:20.374Z,36.40
2017-05-23T12:45:48.683Z,37.10
2017-05-23T12:48:17.064Z,37.50
2017-05-23T12:50:46.465Z,36.80
2017-05-23T12:53:15.437Z,35.30
2017-05-23T12:55:43.881Z,35.50
2017-05-23T12:58:12.331Z,37.40
2017-05-23T13:00:41.545Z,37.90
2017-05-23T13:03:09.856Z,37.00
2017-05-23T13:05:38.140Z,36.30
2017-05-23T13:08:06.482Z,35.40
2017-05-23T13:10:34.821Z,35.50
2017-05-23T13:13:03.298Z,34.10
2017-05-23T13:15:31.641Z,34.40
2017-05-23T13:18:00.151Z,34.60
2017-05-23T13:20:28.523Z,35.50
2017-05-23T13:22:56.838Z,35.50
2017-05-23T13:25:25.154Z,35.30
2017-05-23T13:27:53.493Z,34.50
2017-05-23T13:30:21.838Z,33.20
2017-05-23T13:32:50.146Z,32.40
2017-05-23T13:35:18.479Z,30.80
2017-05-23T13:37:46.777Z,30.10
2017-05-23T13:40:15.066Z,30.10
2017-05-23T13:42:43.439Z,31.00
2017-05-23T13:45:11.809Z,31.50
2017-05-23T13:47:40.198Z,31.60
2017-05-23T13:50:08.548Z,32.00
2017-05-23T13:52:36.834Z,31.50
2017-05-23T13:55:05.217Z,31.90
2017-05-23T13:57:33.566Z,32.10
2017-05-23T14:00:01.849Z,31.40
2017-05-23T14:02:30.228Z,31.60
2017-05-23T14:04:58.621Z,31.00
2017-05-23T14:07:26.954Z,31.50
2017-05-23T14:09:55.375Z,32.30
2017-05-23T14:12:23.770Z,31.80
2017-05-23T14:14:52.185Z,31.70
2017-05-23T14:17:20.481Z,32.60
2017-05-23T14:19:48.787Z,33.30
2017-05-23T14:22:17.080Z,32.80
2017-05-23T14:24:45.441Z,33.20
2017-05-23T14:27:13.772Z,32.70
2017-05-23T14:29:42.150Z,32.60
2017-05-23T14:32:10.537Z,32.40
2017-05-23T14:34:38.921Z,32.40
2017-05-23T14:37:07.294Z,31.80
2017-05-23T14:39:35.625Z,31.90
2017-05-23T14:42:03.954Z,31.60
2017-05-23T14:44:32.318Z,30.70
2017-05-23T14:47:00.700Z,30.50
2017-05-23T14:49:29.090Z,30.70
2017-05-23T14:51:57.477Z,30.60
2017-05-23T14:54:25.815Z,30.40
2017-05-23T14:56:54.233Z,30.50
2017-05-23T14:59:22.588Z,31.80
2017-05-23T15:01:51.070Z,32.10
2017-05-23T15:04:19.450Z,32.70
2017-05-23T15:06:47.829Z,32.80
2017-05-23T15:09:16.138Z,31.60
2017-05-23T15:11:44.517Z,30.70
2017-05-23T15:14:12.888Z,29.90
2017-05-23T15:16:41.256Z,29.40
2017-05-23T15:19:09.625Z,29.60
2017-05-23T15:21:38.005Z,30.30
2017-05-23T15:24:06.285Z,31.00
2017-05-23T15:26:34.764Z,31.70
2017-05-23T15:29:03.053Z,31.70
2017-05-23T15:31:31.433Z,31.20
2017-05-23T15:33:59.720Z,31.20
2017-05-23T15:36:28.026Z,30.70
2017-05-23T15:38:56.361Z,30.10
2017-05-23T15:41:24.748Z,29.80
2017-05-23T15:43:53.117Z,29.30
2017-05-23T15:46:21.497Z,28.90
2017-05-23T15:48:49.874Z,28.90
2017-05-23T15:51:18.206Z,28.60
2017-05-23T15:53:46.525Z,28.40
2017-05-23T15:56:14.911Z,28.40
2017-05-23T15:58:43.304Z,28.30
2017-05-23T16:01:11.867Z,28.20
2017-05-23T16:03:40.201Z,27.90
2017-05-23T16:06:08.488Z,28.00
2017-05-23T16:08:36.817Z,28.50
2017-05-23T16:11:05.096Z,28.60
2017-05-23T16:13:33.475Z,28.80
2017-05-23T16:16:01.819Z,28.50
2017-05-23T16:18:30.107Z,28.20
2017-05-23T16:20:58.596Z,27.80
2017-05-23T16:23:26.977Z,28.20
2017-05-23T16:25:55.278Z,29.10
2017-05-23T16:28:23.642Z,29.90
2017-05-23T16:30:52.022Z,30.20
2017-05-23T16:33:20.312Z,30.20
2017-05-23T16:35:48.628Z,30.50
2017-05-23T16:38:16.923Z,29.70
2017-05-23T16:40:45.325Z,29.40
2017-05-23T16:43:13.712Z,29.30
2017-05-23T16:45:42.093Z,28.80
2017-05-23T16:50:47.944Z,29.00
2017-05-23T16:53:16.329Z,29.40
2017-05-23T16:55:44.708Z,29.10
2017-05-23T16:58:13.103Z,28.60
2017-05-23T17:00:41.410Z,28.20
2017-05-23T17:03:09.702Z,27.80
2017-05-23T17:05:38.141Z,27.30
2017-05-23T17:08:06.438Z,27.00
2017-05-23T17:10:34.726Z,26.60
2017-05-23T17:13:03.057Z,26.60
2017-05-23T17:15:31.376Z,26.40
2017-05-23T17:18:00.796Z,26.20
2017-05-23T17:20:29.218Z,26.00
2017-05-23T17:22:57.596Z,25.80
2017-05-23T17:25:25.917Z,25.70
2017-05-23T17:27:54.265Z,25.50
2017-05-23T17:30:22.605Z,25.30
2017-05-23T17:32:50.892Z,25.00
2017-05-23T17:35:19.182Z,24.90
2017-05-23T17:37:47.508Z,24.80
2017-05-23T17:40:15.840Z,24.60
2017-05-23T17:42:44.218Z,24.50
2017-05-23T17:45:12.507Z,24.40
2017-05-23T17:47:40.811Z,24.00
2017-05-23T17:50:09.153Z,23.80
2017-05-23T17:52:37.533Z,23.50
2017-05-23T17:55:05.912Z,23.10
2017-05-23T17:57:34.209Z,22.70
2017-05-23T18:00:02.502Z,22.50
2017-05-23T18:02:30.844Z,22.50
2017-05-23T18:04:59.135Z,22.20
2017-05-23T18:07:27.812Z,22.10
2017-05-23T18:09:56.127Z,21.60
2017-05-23T18:12:24.481Z,21.00
2017-05-23T18:14:52.854Z,20.40
2017-05-23T18:17:21.157Z,19.10
2017-05-23T18:19:49.510Z,18.10
2017-05-23T18:22:17.806Z,17.20
2017-05-23T18:24:46.097Z,16.50
2017-05-23T18:27:14.420Z,16.10
2017-05-23T18:29:42.815Z,15.80
2017-05-23T18:32:11.192Z,15.70
2017-05-23T18:34:39.568Z,15.60
2017-05-23T18:37:07.871Z,15.50
2017-05-23T18:39:36.230Z,15.40
2017-05-23T18:42:04.525Z,15.30
2017-05-23T18:44:32.866Z,15.20
2017-05-23T18:47:01.257Z,15.20
2017-05-23T18:49:29.556Z,15.10
2017-05-23T18:51:57.918Z,15.20
2017-05-23T18:54:26.218Z,15.20
2017-05-23T18:56:54.675Z,15.30
2017-05-23T18:59:23.047Z,15.40
2017-05-23T19:01:51.439Z,15.40
2017-05-23T19:04:19.760Z,15.50
2017-05-23T19:06:48.088Z,15.60
2017-05-23T19:09:16.441Z,15.70
2017-05-23T19:11:44.858Z,15.70
2017-05-23T19:14:13.181Z,15.70
2017-05-23T19:16:41.514Z,15.70
2017-05-23T19:19:09.881Z,15.70
2017-05-23T19:21:38.257Z,15.70
2017-05-23T19:24:06.558Z,15.70
2017-05-23T19:26:34.900Z,15.80
2017-05-23T19:29:03.292Z,15.80
2017-05-23T19:31:31.684Z,15.70
2017-05-23T19:33:59.997Z,15.60
2017-05-23T19:36:28.319Z,15.60
2017-05-23T19:38:56.701Z,15.60
2017-05-23T19:41:25.050Z,15.60
2017-05-23T19:43:53.365Z,15.70
2017-05-23T19:46:21.729Z,15.70
2017-05-23T19:48:50.113Z,15.70
2017-05-23T19:51:18.452Z,15.70
2017-05-23T19:53:46.763Z,15.80
2017-05-23T19:56:15.164Z,15.80
2017-05-23T19:58:43.504Z,15.70
2017-05-23T20:01:11.913Z,15.70
2017-05-23T20:03:40.282Z,15.60
2017-05-23T20:06:08.576Z,15.60
2017-05-23T20:08:36.881Z,15.50
2017-05-23T20:11:05.213Z,15.50
2017-05-23T20:13:33.598Z,15.60
2017-05-23T20:16:01.969Z,15.60
2017-05-23T20:18:30.289Z,15.70
2017-05-23T20:20:58.592Z,15.70
2017-05-23T20:23:26.999Z,15.60
2017-05-23T20:25:55.393Z,15.60
2017-05-23T20:28:23.771Z,15.50
2017-05-23T20:30:52.060Z,15.60
2017-05-23T20:33:20.378Z,15.60
2017-05-23T20:35:48.899Z,15.70
2017-05-23T20:38:17.193Z,15.70
2017-05-23T20:40:45.493Z,15.80
2017-05-23T20:43:13.838Z,15.80
2017-05-23T20:45:42.137Z,15.90
2017-05-23T20:48:10.442Z,15.90
2017-05-23T20:50:38.796Z,15.90
2017-05-23T20:53:07.125Z,15.80
2017-05-23T20:55:35.425Z,15.70
2017-05-23T20:58:03.813Z,15.70
2017-05-23T21:00:32.133Z,15.70
2017-05-23T21:03:00.434Z,15.60
2017-05-23T21:05:28.862Z,15.60
2017-05-23T21:07:57.166Z,15.60
2017-05-23T21:10:25.499Z,15.70
2017-05-23T21:12:53.814Z,15.60
2017-05-23T21:15:22.109Z,15.60
2017-05-23T21:17:50.453Z,15.60
2017-05-23T21:20:18.757Z,15.70
2017-05-23T21:22:47.091Z,15.60
2017-05-23T21:25:15.411Z,15.70
2017-05-23T21:27:43.747Z,15.60
2017-05-23T21:30:12.119Z,15.60
2017-05-23T21:32:40.414Z,15.70
2017-05-23T21:35:08.717Z,15.70
2017-05-23T21:37:37.026Z,15.70
2017-05-23T21:40:05.313Z,15.70
2017-05-23T21:42:33.722Z,15.80
2017-05-23T21:45:02.048Z,15.70
2017-05-23T21:47:30.385Z,15.70
2017-05-23T21:49:58.750Z,15.70
2017-05-23T21:52:27.037Z,15.60
2017-05-23T21:54:55.413Z,15.60
2017-05-23T21:57:23.715Z,15.60
2017-05-23T21:59:52.053Z,15.50
2017-05-23T22:02:20.436Z,15.50
2017-05-23T22:04:48.818Z,15.40
2017-05-23T22:07:17.130Z,15.30
2017-05-23T22:09:45.496Z,15.30
2017-05-23T22:12:13.850Z,15.20
2017-05-23T22:14:42.155Z,15.20
2017-05-23T22:17:10.472Z,15.10
2017-05-23T22:19:38.783Z,15.10
2017-05-23T22:22:07.161Z,15.00
2017-05-23T22:24:35.516Z,15.00
2017-05-23T22:27:03.827Z,15.00
2017-05-23T22:29:32.121Z,14.90
2017-05-23T22:32:00.475Z,15.00
2017-05-23T22:34:28.860Z,15.00
2017-05-23T22:36:57.174Z,14.90
2017-05-23T22:39:25.508Z,14.90
2017-05-23T22:41:53.846Z,14.90
2017-05-23T22:44:22.139Z,14.90
2017-05-23T22:46:50.458Z,14.80
2017-05-23T22:49:18.834Z,14.80
2017-05-23T22:51:47.130Z,14.80
2017-05-23T22:54:15.472Z,14.70
2017-05-23T22:56:43.766Z,14.70
2017-05-23T22:59:12.070Z,14.70
2017-05-23T23:01:40.508Z,14.60
2017-05-23T23:04:08.892Z,14.60
2017-05-23T23:06:37.273Z,14.40
2017-05-23T23:09:05.631Z,14.30
2017-05-23T23:11:33.934Z,14.20
2017-05-23T23:14:02.262Z,14.10
2017-05-23T23:16:30.590Z,14.00
2017-05-23T23:18:58.941Z,13.80
2017-05-23T23:21:27.235Z,13.70
2017-05-23T23:23:55.630Z,13.70
2017-05-23T23:26:23.942Z,13.60
2017-05-23T23:28:52.230Z,13.50
2017-05-23T23:31:20.659Z,13.40
2017-05-23T23:33:48.944Z,13.30
2017-05-23T23:36:17.309Z,13.20
2017-05-23T23:38:45.706Z,13.00
2017-05-23T23:41:14.008Z,12.80
2017-05-23T23:43:42.333Z,12.80
2017-05-23T23:46:10.628Z,12.70
2017-05-23T23:48:39.022Z,12.70
2017-05-23T23:51:07.390Z,12.50
2017-05-23T23:53:35.708Z,12.30
2017-05-23T23:56:04.037Z,12.30
2017-05-23T23:58:32.329Z,12.20
